Terminal Aerodrome Forecast
Issued by NWS

Home | Current Version | Previous Version | Graphics & Text | Print | Product List | Glossary On
Versions: 1 2 3 4 5 6 7 8 9 10 11 12 13 14
870
FTUS43 KABR 170520
TAFMBG
TAF
KMBG 170520Z 1706/1806 34004KT P6SM FEW250
     FM171400 26005KT P6SM FEW250
     FM171800 20005KT P6SM FEW250
     FM180300 14007KT P6SM BKN200=

USA.gov is the U.S. government's official web portal to all federal, state and local government web resources and services.